OEJNOETF

Guest
Details From OEJN - Jeddah King Abdulaziz Intl
To OETF - TAIF
Flight Number -
Tags generated
Created
Modified
Stats Distance 78 nm / 145 km
Max Altitude 200 ft / 61 m
Waypoints 3
Social Downloads 5
Likes 0
Share VATSIM

Download

Looking for another format? Having issues loading an existing format? Contact us
Advertisement - Login to hide

Notes

Basic altitude profile: - Ascent Rate: 2500ft/min - Ascent Speed: 250kts - Cruise Altitude: 35000ft - Cruise Speed: 420kts - Descent Rate: 1500ft/min - Descent Speed: 250kts Options: - Use NATs: yes - Use PACOTS: yes - Use low airways: yes - Use high airways: yes

Route

OEJN JDW OETF

ID Type Via Altitude Latitude Longitude Leg Dist Tot Dist Heading (true) Name
O OEJN APT - 0 ft / 0 m 21.68132˚ 39.15565˚ - 0 nm - Jeddah King Abdulaziz Intl
JDW VOR - 200 ft / 61 m 21.67914˚ 39.16625˚ 0 nm 0 nm 102° / 102° KING ABDULAZIZ VORTAC
O OETF APT - 0 ft / 0 m 21.48661˚ 40.54062˚ 77 nm 78 nm 98° / 99° TAIF

Altitude Profile

Advertisement - Login to hide

OEJN

Details ICAO OEJN (JED)
Name Jeddah King Abdulaziz Intl
Region Saudi Arabia
Timezone Asia/Riyadh (UTC+3.0)
Stats Elevation 48 ft / 15 m (AMSL)
Location 21.681319° 39.155647°
Runways 3
Magnetic Variation 3.513° E

METAR

OEJN 131000Z 22006KT CAVOK 30/18 Q1015 NOSIG

Decode

TAF

Not found

Departure Runways

ID Width Length Bearing (true) Bearing (mag) Surface Threshold Offset Overrun Length
16C 197 ft / 60 m 10,866 ft / 3,312 m 159.86° 156.35° Concrete 500 ft / 152 m 0 ft / 0 m
16L 148 ft / 45 m 12,151 ft / 3,704 m 159.87° 156.36° Asphalt 800 ft / 244 m 0 ft / 0 m
16R 197 ft / 60 m 12,514 ft / 3,814 m 159.86° 156.35° Concrete 0 ft / 0 m 394 ft / 120 m
34C 197 ft / 60 m 10,866 ft / 3,312 m 339.87° 336.36° Concrete 500 ft / 152 m 0 ft / 0 m
34L 197 ft / 60 m 12,514 ft / 3,814 m 339.86° 336.35° Concrete 0 ft / 0 m 394 ft / 120 m
34R 148 ft / 45 m 12,151 ft / 3,704 m 339.88° 336.37° Asphalt 800 ft / 244 m 0 ft / 0 m

OETF

Details ICAO OETF (TIF)
Name TAIF
Region Saudi Arabia
Timezone Asia/Riyadh (UTC+3.0)
Stats Elevation 4,848 ft / 1,478 m (AMSL)
Location 21.486611° 40.540617°
Runways 2
Magnetic Variation 3.359° E

METAR

OETF 131000Z 10007KT CAVOK 27/M14 Q1021 NOSIG

Decode

TAF

Not found

Destination Runways

ID Width Length Bearing (true) Bearing (mag) Surface Threshold Offset Overrun Length
07 148 ft / 45 m 12,279 ft / 3,743 m 74.58° 71.22° Asphalt 0 ft / 0 m 960 ft / 293 m
17 148 ft / 45 m 11,051 ft / 3,368 m 172.15° 168.79° Asphalt 0 ft / 0 m 380 ft / 116 m
25 148 ft / 45 m 12,279 ft / 3,743 m 254.59° 251.23° Asphalt 0 ft / 0 m 400 ft / 122 m
35 148 ft / 45 m 11,051 ft / 3,368 m 352.15° 348.79° Asphalt 0 ft / 0 m 322 ft / 98 m

Popular Alternatives